Terminal Aerodrome Forecast
Issued by NWS Bismarck, ND

Home | Current Version | Previous Version | Text Only | Print | Product List | Glossary Off
Versions: 1 2 3 4 5 6 7 8 9 10 11 12 13 14 15 16 17 18 19

000
FTUS43 KBIS 070253 AAB
TAFBIS
TAF AMD
KBIS 070253Z 0703/0724 06008KT P6SM VCTS SCT015CB BKN050
     FM070500 34008KT 5SM -SHRA BR SCT015 OVC025
     FM070900 34013KT P6SM VCSH OVC008
     FM071600 32018G26KT P6SM BKN015 OVC025
     FM071900 33018G26KT P6SM OVC025=

USA.gov is the U.S. government's official web portal to all federal, state and local government web resources and services.